Tiempo atmosférico en la estación meteorológica de Gotarrendura , Ávila (920 m.)



Fecha
DESCASC
Temp. máxima en grados centígrados (hora)
DESCASC
Temp. mínima en grados centígrados (hora)
DESCASC
Temp. media en grados centígrados
DESCASC
Racha de viento máxima en m/sg (hora)
DESCASC
Velocidad máxima media en intervalos de 10 minutos(hora)
DESCASC
Precipitaciones diarias en mm
DESCASC
Precipitaciones de 00:00 a 06:00 en mm
DESCASC
Precipitaciones de 06:00 a 12:00 en mm
DESCASC
Precipitaciones de 12:00 a 18:00 en mm
DESCASC
Precipitaciones de 18:00 a 24:00 en mm
DESCASC
02-04-2020 10.8 (17:20) 1.1 (02:10) 6 8.33 (19:00) 5.56 (17:40) 1.2 0 0 0 1.2
01-04-2020 12.7 (16:50) 0.6 (08:30) 6.6 9.17 (01:00) 5.83 (01:30) 0.8 0 0 0 0.8
31-03-2020 11 (17:30) -0.8 (-00:0) 5.1 11.11 (18:20) 7.22 (14:10) 5.4 0 1.2 0 4.2
30-03-2020 6.9 (00:00) -0.6 (-00:0) 3.2 11.11 (13:00) 6.11 (11:50) 0 0 0 0 0
29-03-2020 15.8 (17:20) -0.6 (-00:0) 7.6 9.17 (23:10) 6.67 (23:10) 0 0 0 0 0
28-03-2020 15.4 (16:10) -1.2 (-00:0) 7.1 6.39 (13:30) 3.89 (01:00) 0 0 0 0 0
27-03-2020 10.5 (15:00) -2.4 (-00:0) 4 10 (14:40) 5.83 (15:10) 0 0 0 0 0
26-03-2020 11.9 (16:40) -2.9 (-00:0) 4.5 8.33 (18:00) 4.17 (13:40) 0 0 0 0 0
25-03-2020 15.3 (16:20) 1.8 (00:00) 8.6 8.33 (03:10) 5 (17:30) 0 0 0 0 0
24-03-2020 15 (16:10) 2 (00:00) 8.5 7.5 (11:10) 4.17 (14:40) 0 0 0 0 0
23-03-2020 -- (--) -- (--) -- -- (--) -- (--) -- 0 -- 1 0
22-03-2020 11.8 (15:50) 4.7 (04:50) 8.3 5.56 (16:20) 3.61 (16:20) 0.8 0 0 0 0.8
21-03-2020 10.2 (13:40) 5.2 (00:00) 7.7 13.33 (03:50) 8.61 (02:10) 0 0 0 0 0
20-03-2020 11.2 (12:20) 7.2 (00:00) 9.2 14.17 (10:50) 9.72 (10:30) 0 0 0 0 0
19-03-2020 12.8 (17:10) 8 (00:00) 10.4 11.39 (07:00) 7.22 (23:40) 0 0 0 0 0
18-03-2020 17.2 (15:20) 4.3 (00:00) 10.8 8.89 (13:30) 5.83 (13:30) 0 0 0 0 0
17-03-2020 13.6 (16:20) 1 (00:00) 7.3 11.67 (16:20) 8.33 (16:00) 1 1 0 0 0
16-03-2020 3.6 (00:00) -0.2 (00:00) 1.7 13.61 (17:10) 8.61 (17:10) 18.4 0.4 1.6 9.2 7.2
15-03-2020 19.5 (15:40) 1.8 (00:00) 10.6 16.39 (16:40) 12.5 (16:20) 0 0 0 0 0
14-03-2020 18.1 (16:10) -1.7 (-00:0) 8.2 5.56 (17:00) 3.61 (17:10) 0 0 0 0 0
13-03-2020 15.8 (17:00) 3.9 (06:00) 9.9 5 (18:40) 3.61 (19:50) 0 0 0 0 0
12-03-2020 24.6 (15:20) 9 (00:00) 16.8 7.78 (05:40) 5 (05:40) 0 0 0 0 0
11-03-2020 24 (15:30) 5.1 (00:00) 14.5 5.28 (15:30) 3.06 (13:50) 0 0 0 0 0
10-03-2020 21.7 (16:20) 1.8 (00:00) 11.8 8.33 (17:10) 5.83 (16:30) 0 0 0 0 0
09-03-2020 13.2 (16:50) 0.9 (00:00) 7 10.28 (01:20) 7.22 (01:20) 0 0 0 0 0
08-03-2020 13.7 (15:10) -1.9 (-00:0) 5.9 12.5 (15:30) 9.72 (15:30) 0 0 0 0 0
07-03-2020 11.9 (16:20) -0.8 (-00:0) 5.5 7.5 (10:00) 5 (04:10) 0 0 0 0 0
06-03-2020 9.6 (16:20) -0.2 (00:00) 4.7 18.61 (11:30) 14.17 (11:40) 0 0 0 0 0
05-03-2020 11.7 (14:30) 4.1 (00:00) 7.9 19.17 (09:50) 14.44 (14:10) 0.2 0 0.2 0 0

Gráficas

Temp. máximas Temp. mínimas Temp. medias Precipitaciones Rachas de viento máximas Velocidades máximas media en intervalos de 10 minutos

Datos horarios

Fecha y hora oficial Temperatura (ºC) Velocidad del viento (km/h) Dirección del viento Racha (km/h) Dirección de racha Precipitación (mm) Presión (hPa) Tendencia (hPa) Humedad (%)
2020-04-03 23:00:00 -- -- -- -- -- -- -- -- --
2020-04-03 22:00:00 -- -- -- -- -- -- -- -- --
2020-04-03 21:00:00 -- -- -- -- -- -- -- -- --
2020-04-03 20:00:00 11.8 -- -- 12 Norte 0 -- -- 56
2020-04-03 19:00:00 13.2 -- -- 14 Norte 0 -- -- 46
2020-04-03 18:00:00 13.4 5 Norte 12 Norte 0 -- -- 47
2020-04-03 17:00:00 13.6 -- -- 15 Norte 0 -- -- 54
2020-04-03 16:00:00 12.8 5 Nordeste 17 Norte 0 -- -- 56
2020-04-03 15:00:00 12.8 4 Sur 18 Norte 0 -- -- 58
2020-04-03 14:00:00 11.3 7 Nordeste 15 Nordeste 0 -- -- 65
2020-04-03 13:00:00 10.4 5 Noroeste 15 Norte 0 -- -- 64
2020-04-03 12:00:00 8.8 3 Noroeste 8 Este 0 -- -- 75
2020-04-03 11:00:00 5.9 2 Sudeste 8 Norte 0 -- -- 95
2020-04-03 10:00:00 2.3 0 Calma 6 Sudeste 0.2 -- -- 99
2020-04-03 09:00:00 -0.9 2 Sur 5 Sur 0 -- -- 99
2020-04-03 08:00:00 -2.4 5 Sur 6 Sur 0 -- -- 97
2020-04-03 07:00:00 -1.9 4 Sur 8 Sur 0 -- -- 97
2020-04-03 06:00:00 -1.6 3 Sur 8 Sur 0 -- -- 97
2020-04-03 05:00:00 -0.9 4 Sur 9 Norte 0 -- -- 98
2020-04-03 04:00:00 -0.7 -- -- 6 Norte 0 -- -- 97
2020-04-03 03:00:00 0.1 -- -- 6 Norte 0 -- -- 97
2020-04-03 02:00:00 0.8 -- -- 9 Norte 0 -- -- 96
2020-04-03 01:00:00 1.5 -- -- 10 Norte 0 -- -- 97
2020-04-03 00:00:00 2.5 0 Calma 9 Sur 0 -- -- 97
2020-04-02 23:00:00 4.1 0 Calma 6 Norte 0 -- -- 92
2020-04-02 22:00:00 5.4 2 Noroeste 8 Norte 0 -- -- 92
2020-04-02 21:00:00 7.2 -- -- 8 Norte 0 -- -- 92
2020-04-02 20:00:00 7.4 -- -- 23 Noroeste 0.8 -- -- 92
2020-04-02 19:00:00 8.7 17 Noroeste 30 Norte 0.4 -- -- 85
2020-04-02 18:00:00 8.8 15 Norte 27 Nordeste 0 -- -- 82
2020-04-02 17:00:00 10.5 12 Norte 22 Norte 0 -- -- 75
2020-04-02 16:00:00 9.2 -- -- 23 Norte 0 -- -- 83
2020-04-02 15:00:00 9.4 12 Norte 20 Nordeste 0 -- -- 76
2020-04-02 14:00:00 9.4 11 Norte 18 Nordeste 0 -- -- 78
2020-04-02 13:00:00 8.9 5 Nordeste 13 Oeste 0 -- -- 84
2020-04-02 12:00:00 8.1 5 Noroeste 12 Noroeste 0 -- -- 85
2020-04-02 11:00:00 5.9 7 Oeste 13 Oeste 0 -- -- 92
2020-04-02 10:00:00 5.1 5 Oeste 9 Oeste 0 -- -- 95
2020-04-02 09:00:00 4.6 7 Sudoeste 12 Sudoeste 0 -- -- 98
2020-04-02 08:00:00 4.1 3 Sudoeste 8 Sudoeste 0 -- -- 99
2020-04-02 07:00:00 3.2 5 Sur 10 Sur 0 -- -- 99
2020-04-02 06:00:00 2.3 5 Sur 8 Sur 0 -- -- 98
2020-04-02 05:00:00 1.9 5 Oeste 9 Oeste 0 -- -- 97
2020-04-02 04:00:00 1.1 5 Sur 13 Sur 0 -- -- 94
2020-04-02 03:00:00 2.4 3 Sur 9 Sur 0 -- -- 96
2020-04-02 02:00:00 1.2 5 Sur 10 Sur 0 -- -- 91
2020-04-02 01:00:00 2.9 10 Sur 13 Sur 0 -- -- 88
2020-04-02 00:00:00 5.1 8 Sur 13 Sur 0 -- -- 84
2020-04-01 23:00:00 6.1 8 Norte 26 Norte 0.6 -- -- 80
2020-04-01 22:00:00 7.3 4 Norte 14 Norte 0.2 -- -- 81
2020-04-01 21:00:00 8 9 Oeste 23 Oeste 0 -- -- 75
2020-04-01 20:00:00 9.4 18 Sudoeste 23 Sudoeste 0 -- -- 66
2020-04-01 19:00:00 11.3 4 Oeste 24 Este 0 -- -- 62
2020-04-01 18:00:00 11.1 16 Sudeste 33 Sudeste 0 -- -- 48
2020-04-01 17:00:00 12.4 15 Sudeste 33 Sudeste 0 -- -- 50
2020-04-01 16:00:00 12.6 12 Sur 26 Sudeste 0 -- -- 51
2020-04-01 15:00:00 12.5 -- -- 32 Norte 0 -- -- 54
2020-04-01 14:00:00 10.8 9 Nordeste 21 Nordeste 0 -- -- 74
2020-04-01 13:00:00 8.9 3 Noroeste 9 Nordeste 0 -- -- 85
2020-04-01 12:00:00 5.6 4 Norte 8 Oeste 0 -- -- 100
2020-04-01 11:00:00 4.3 -- -- 8 Noroeste 0 -- -- 100
2020-04-01 10:00:00 3.1 4 Oeste 8 Oeste 0 -- -- 100
2020-04-01 09:00:00 1.9 3 Sudoeste 17 Norte 0 -- -- 99
2020-04-01 08:00:00 1.4 4 Sudeste 11 Sudeste 0 -- -- 95
2020-04-01 07:00:00 2.3 6 Oeste 14 Este 0 -- -- 91
2020-04-01 06:00:00 4.5 12 Sudeste 21 Norte 0 -- -- 91
2020-04-01 05:00:00 5 16 Sudeste 23 Este 0 -- -- 92
2020-04-01 04:00:00 5.3 13 Sudeste 23 Sudeste 0 -- -- 90
2020-04-01 03:00:00 5.6 12 Este 28 Sudeste 0 -- -- 88
2020-04-01 02:00:00 5.5 15 Sudeste 33 Sudeste 0 -- -- 88
2020-04-01 01:00:00 6.1 21 Sudeste 33 Este 0 -- -- 86
2020-04-01 00:00:00 5.2 15 Este 22 Este 0 -- -- 91
2020-03-31 23:00:00 5.3 13 Este 19 Este 0.4 -- -- 93
2020-03-31 22:00:00 6 11 Este 31 Sudeste 3.4 -- -- 91
2020-03-31 21:00:00 6.9 15 Sudeste 30 Sudeste 0.4 -- -- 88
2020-03-31 20:00:00 7.9 22 Sudeste 37 Sudeste 0 -- -- 83
2020-03-31 19:00:00 9.4 22 Sudeste 40 Sudeste 0 -- -- 72
2020-03-31 18:00:00 10.8 18 Sudeste 36 Sudeste 0 -- -- 68
2020-03-31 17:00:00 10.5 17 Sudeste 34 Sudeste 0 -- -- 74
2020-03-31 16:00:00 8.8 21 Este 32 Este 0 -- -- 78
2020-03-31 15:00:00 7.3 20 Este 39 Este 0 -- -- 80
2020-03-31 14:00:00 7.4 22 Este 35 Sudeste 0 -- -- 77
2020-03-31 13:00:00 7 22 Sudeste 38 Sudeste 0 -- -- 76
2020-03-31 12:00:00 5.8 21 Sudeste 32 Sudeste 0.2 -- -- 80
2020-03-31 11:00:00 1.9 5 Nordeste 11 Nordeste 1 -- -- 96
2020-03-31 10:00:00 -0.2 5 Nordeste 8 Nordeste 0 -- -- 95
2020-03-31 09:00:00 -0.5 2 Nordeste 12 Nordeste 0 -- -- 95
2020-03-31 08:00:00 -0.6 8 Nordeste 13 Nordeste 0 -- -- 96
2020-03-31 07:00:00 -0.7 6 Nordeste 13 Nordeste 0 -- -- 97
2020-03-31 06:00:00 -0.4 9 Nordeste 14 Nordeste 0 -- -- 98
2020-03-31 05:00:00 -0.4 10 Nordeste 13 Nordeste 0 -- -- 98
2020-03-31 04:00:00 -0.5 9 Nordeste 13 Nordeste 0 -- -- 98
2020-03-31 03:00:00 -0.7 7 Nordeste 12 Nordeste 0 -- -- 97
2020-03-31 02:00:00 -0.8 7 Norte 10 Norte 0 -- -- 97
2020-03-31 01:00:00 -0.8 9 Nordeste 14 Nordeste 0 -- -- 97
2020-03-31 00:00:00 -0.6 8 Nordeste 13 Nordeste 0 -- -- 95
2020-03-30 23:00:00 0.3 3 Nordeste 18 Este 0 -- -- 91
2020-03-30 22:00:00 1.4 14 Nordeste 25 Nordeste 0 -- -- 75
2020-03-30 21:00:00 2 18 Nordeste 28 Nordeste 0 -- -- 67
2020-03-30 20:00:00 2.6 15 Nordeste 30 Nordeste 0 -- -- 61
2020-03-30 19:00:00 3.1 8 Este 25 Nordeste 0 -- -- 61
2020-03-30 18:00:00 2.8 13 Nordeste 29 Nordeste 0 -- -- 64
2020-03-30 17:00:00 3.1 8 Nordeste 27 Nordeste 0 -- -- 62
2020-03-30 16:00:00 3.3 17 Nordeste 28 Nordeste 0 -- -- 60
2020-03-30 15:00:00 3.6 15 Norte 27 Nordeste 0 -- -- 63
2020-03-30 14:00:00 3.3 19 Norte 32 Nordeste 0 -- -- 61
2020-03-30 13:00:00 3.2 20 Norte 40 Nordeste 0 -- -- 61
2020-03-30 12:00:00 2.5 20 Nordeste 31 Nordeste 0 -- -- 66
2020-03-30 11:00:00 1.7 18 Norte 27 Norte 0 -- -- 68
2020-03-30 10:00:00 1.8 13 Norte 22 Norte 0 -- -- 74
2020-03-30 09:00:00 1.4 18 Norte 28 Norte 0 -- -- 79
2020-03-30 08:00:00 1.7 15 Norte 22 Norte 0 -- -- 83
2020-03-30 07:00:00 1.8 9 Norte 21 Norte 0 -- -- 83
2020-03-30 06:00:00 2.2 12 Norte 23 Norte 0 -- -- 85
2020-03-30 05:00:00 3 17 Norte 26 Norte 0 -- -- 87
2020-03-30 04:00:00 1.7 6 Norte 12 Norte 0 -- -- 87
2020-03-30 03:00:00 3.1 5 Norte 17 Nordeste 0 -- -- 86
2020-03-30 02:00:00 4.6 11 Nordeste 20 Norte 0 -- -- 81
2020-03-30 01:00:00 5.3 10 Norte 22 Nordeste 0 -- -- 75
2020-03-30 00:00:00 6.9 13 Nordeste 33 Nordeste 0 -- -- 67
2020-03-29 23:00:00 8.2 20 Nordeste 30 Norte 0 -- -- 61
2020-03-29 22:00:00 8.2 14 Norte 18 Norte 0 -- -- 61
2020-03-29 21:00:00 10.9 6 Noroeste 17 Noroeste 0 -- -- 56
2020-03-29 20:00:00 13.2 10 Noroeste 20 Oeste 0 -- -- 48
2020-03-29 19:00:00 14.9 11 Noroeste 20 Noroeste 0 -- -- 44
2020-03-29 18:00:00 15.6 6 Noroeste 23 Noroeste 0 -- -- 41
2020-03-29 17:00:00 15.3 10 Oeste 21 Norte 0 -- -- 43
2020-03-29 16:00:00 15.5 8 Noroeste 24 Noroeste 0 -- -- 48
2020-03-29 15:00:00 15.1 8 Noroeste 21 Noroeste 0 -- -- 43
2020-03-29 14:00:00 14.3 9 Noroeste 17 Noroeste 0 -- -- 46
2020-03-29 13:00:00 12.8 7 Noroeste 19 Sudoeste 0 -- -- 53
2020-03-29 12:00:00 11.4 7 Oeste 15 Oeste 0 -- -- 56
2020-03-29 11:00:00 9.4 10 Oeste 16 Oeste 0 -- -- 59
2020-03-29 10:00:00 7.8 9 Sudoeste 13 Sudoeste 0 -- -- 67
2020-03-29 09:00:00 2.3 3 Sudeste 4 Sudeste 0 -- -- 83
2020-03-29 08:00:00 -0.4 2 Sudoeste 9 Sur 0 -- -- 87
2020-03-29 07:00:00 0.6 7 Sur 12 Sur 0 -- -- 85
2020-03-29 06:00:00 -0.2 0 Calma 6 Sudeste 0 -- -- 84
2020-03-29 05:00:00 0.6 3 Este 10 Sur 0 -- -- 85
2020-03-29 03:00:00 1.2 4 Sudeste 8 Sudeste 0 -- -- 80
2020-03-29 01:00:00 2.2 4 Sudeste 10 Sur 0 -- -- 75
2020-03-29 00:00:00 4 5 Sur 14 Sur 0 -- -- 69
2020-03-28 23:00:00 4.9 7 Sudoeste 11 Oeste 0 -- -- 64
2020-03-28 22:00:00 6.5 7 Sudeste 19 Sudeste 0 -- -- 57
2020-03-28 21:00:00 8.2 10 Sudeste 18 Sudeste 0 -- -- 54
2020-03-28 20:00:00 9.8 10 Sudeste 15 Sudeste 0 -- -- 50
2020-03-28 19:00:00 12.7 11 Sudeste 21 Sudeste 0 -- -- 43
2020-03-28 18:00:00 14.4 -- -- 13 Sudeste 0 -- -- 38
2020-03-28 17:00:00 15.2 8 Sudeste 17 Sur 0 -- -- 37
2020-03-28 16:00:00 15.2 10 Sudeste 18 Sudeste 0 -- -- 37
2020-03-28 15:00:00 14.5 8 Sudeste 20 Nordeste 0 -- -- 37
2020-03-28 14:00:00 13.7 6 Noroeste 23 Norte 0 -- -- 42
2020-03-28 13:00:00 12.7 7 Nordeste 20 Nordeste 0 -- -- 46
2020-03-28 12:00:00 11.2 6 Norte 16 Norte 0 -- -- 50
2020-03-28 11:00:00 10 8 Este 17 Este 0 -- -- 52
2020-03-28 10:00:00 8.6 5 Este 13 Este 0 -- -- 58
2020-03-28 09:00:00 4.8 7 Este 14 Este 0 -- -- 78
2020-03-28 08:00:00 0.1 10 Este 13 Este 0 -- -- 91
2020-03-28 07:00:00 -0.6 3 Sudeste 15 Este 0 -- -- 88
2020-03-28 06:00:00 -0.3 9 Este 13 Este 0 -- -- 90
2020-03-28 05:00:00 0.2 5 Sudeste 9 Este 0 -- -- 88
2020-03-28 04:00:00 1.7 5 Sudeste 19 Sudeste 0 -- -- 85
2020-03-28 03:00:00 2.3 11 Sudeste 18 Sudeste 0 -- -- 84
2020-03-28 02:00:00 3 13 Sudeste 21 Este 0 -- -- 80
2020-03-28 01:00:00 3.1 14 Sudeste 22 Sudeste 0 -- -- 80
2020-03-28 00:00:00 3.2 13 Sudeste 21 Sudeste 0 -- -- 78
2020-03-27 23:00:00 3.4 12 Sudeste 20 Sudeste 0 -- -- 73
2020-03-27 22:00:00 2.8 7 Este 13 Sudeste 0 -- -- 72
2020-03-27 21:00:00 4.5 6 Sudeste 15 Sudeste 0 -- -- 61
2020-03-27 20:00:00 5.7 9 Sudeste 19 Sudeste 0 -- -- 57
2020-03-27 19:00:00 8 13 Sudeste 27 Este 0 -- -- 50
2020-03-27 18:00:00 8.7 17 Sudeste 33 Este 0 -- -- 47
2020-03-27 17:00:00 9.9 19 Este 33 Este 0 -- -- 48
2020-03-27 16:00:00 10.5 13 Sudeste 34 Este 0 -- -- 42
2020-03-27 15:00:00 10.5 20 Nordeste 36 Nordeste 0 -- -- 39
2020-03-27 14:00:00 9 9 Sudeste 20 Nordeste 0 -- -- 51
2020-03-27 13:00:00 8.1 9 Nordeste 24 Norte 0 -- -- 49
2020-03-27 12:00:00 8.1 11 Nordeste 20 Nordeste -- -- -- 58
2020-03-27 11:00:00 6.2 8 Norte 12 Norte 0 -- -- 61
2020-03-27 10:00:00 3.3 3 Nordeste 6 Nordeste 0 -- -- 73
2020-03-27 09:00:00 1.5 3 Este 6 Nordeste 0 -- -- 74
2020-03-27 08:00:00 -1.7 3 Norte 6 Noroeste 0 -- -- 84
2020-03-27 07:00:00 -2.2 2 Noroeste 5 Norte 0 -- -- 84
2020-03-27 06:00:00 -0.6 0 Calma 13 Norte 0 -- -- 81
2020-03-27 05:00:00 0.2 12 Norte 16 Nordeste 0 -- -- 78
2020-03-27 04:00:00 0.9 4 Norte 9 Norte 0 -- -- 81
2020-03-27 03:00:00 1 4 Norte 7 Norte 0 -- -- 82
2020-03-27 02:00:00 0.3 3 Norte 5 Nordeste 0 -- -- 88
2020-03-27 01:00:00 -0.6 0 Calma 4 Norte 0 -- -- 85
2020-03-27 00:00:00 1.1 3 Nordeste 14 Nordeste 0 -- -- 80
2020-03-26 23:00:00 2.3 9 Nordeste 14 Nordeste 0 -- -- 76
2020-03-26 22:00:00 3 8 Nordeste 10 Nordeste 0 -- -- 74
2020-03-26 21:00:00 3.2 9 Nordeste 12 Nordeste 0 -- -- 74
2020-03-26 20:00:00 6 6 Nordeste 12 Nordeste 0 -- -- 64
2020-03-26 19:00:00 10 8 Noroeste 19 Norte 0 -- -- 46
2020-03-26 18:00:00 11.2 10 Oeste 30 Norte 0 -- -- 40
2020-03-26 17:00:00 11.8 11 Noroeste 22 Noroeste 0 -- -- 39
2020-03-26 16:00:00 11.7 10 Noroeste 23 Noroeste 0 -- -- 42
2020-03-26 15:00:00 11.4 -- -- 26 Noroeste 0 -- -- 42
2020-03-26 14:00:00 11 13 Noroeste 24 Oeste 0 -- -- 42
2020-03-26 13:00:00 10.3 13 Noroeste 20 Noroeste 0 -- -- 43
2020-03-26 12:00:00 9.3 6 Noroeste 15 Noroeste 0 -- -- 47
2020-03-26 11:00:00 8.1 6 Norte 15 Noroeste 0 -- -- 49
2020-03-26 10:00:00 6 4 Noroeste 8 Noroeste 0 -- -- 52
2020-03-26 09:00:00 2.4 4 Sur 10 Sur 0 -- -- 77
2020-03-26 08:00:00 -1.9 7 Sur 13 Sur 0 -- -- 87
2020-03-26 07:00:00 -2.7 4 Sur 11 Sur 0 -- -- 89
2020-03-26 06:00:00 -2 4 Sur 8 Sur 0 -- -- 89
2020-03-26 05:00:00 -1.4 5 Sur 8 Norte 0 -- -- 85
2020-03-26 04:00:00 0 5 Sur 9 Norte -- -- -- 86
2020-03-26 03:00:00 1.9 -- -- 10 Norte 0 -- -- 86
2020-03-26 02:00:00 3.8 -- -- 8 Norte 0 -- -- 88
2020-03-26 01:00:00 5.4 3 Sur 10 Norte 0 -- -- 86
2020-03-26 00:00:00 6.1 7 Norte 17 Norte 0 -- -- 82
2020-03-25 23:00:00 6.8 9 Sur 17 Sur 0 -- -- 81
2020-03-25 22:00:00 7.2 12 Sur 20 Sur 0 -- -- 79
2020-03-25 21:00:00 7.2 9 Sur 15 Sudoeste 0 -- -- 80
2020-03-25 20:00:00 9.4 14 Sudoeste 18 Sudoeste 0 -- -- 74
2020-03-25 19:00:00 13.2 5 Oeste 20 Noroeste 0 -- -- 54
2020-03-25 18:00:00 14.4 13 Noroeste 27 Norte 0 -- -- 44
2020-03-25 17:00:00 15.1 15 Noroeste 29 Norte 0 -- -- 45
2020-03-25 16:00:00 14.8 16 Noroeste 29 Norte 0 -- -- 52
2020-03-25 15:00:00 14.1 14 Oeste 29 Oeste 0 -- -- 57
2020-03-25 14:00:00 14 15 Oeste 29 Oeste 0 -- -- 63
2020-03-25 13:00:00 12.5 12 Oeste 26 Oeste 0 -- -- 66
2020-03-25 12:00:00 12.1 12 Oeste 21 Oeste 0 -- -- 66
2020-03-25 11:00:00 11.1 13 Oeste 19 Sudoeste 0 -- -- 71
2020-03-25 10:00:00 9.6 -- -- 23 Sudoeste 0 -- -- 80
2020-03-25 09:00:00 7.1 11 Sudoeste 15 Sudoeste 0 -- -- 92
2020-03-25 08:00:00 2.7 4 Sur 8 Sur 0 -- -- 93
2020-03-25 07:00:00 2.2 7 Sur 12 Sur 0 -- -- 91
2020-03-25 06:00:00 3.3 6 Sur 12 Sur 0 -- -- 90
2020-03-25 05:00:00 4.7 4 Sur 26 Sudeste 0 -- -- 86
2020-03-25 04:00:00 5.7 13 Sudeste 30 Este 0 -- -- 86
2020-03-25 03:00:00 6.1 14 Sudeste 26 Sudeste 0 -- -- 85
2020-03-25 02:00:00 6.1 12 Sudeste 26 Sudeste 0 -- -- 85
2020-03-25 01:00:00 6.3 10 Sudeste 19 Sudeste 0 -- -- 84
2020-03-25 00:00:00 5.4 6 Este 12 Este 0 -- -- 86
2020-03-24 23:00:00 5.3 0 Calma 10 Sudeste 0 -- -- 79
2020-03-24 22:00:00 8.5 5 Sudeste 11 Este 0 -- -- 73
2020-03-24 21:00:00 9.9 9 Nordeste 23 Norte 0 -- -- 69
2020-03-24 20:00:00 9.7 3 Sudeste 10 Sudeste 0 -- -- 72
2020-03-24 19:00:00 11.8 5 Sudeste 12 Sudeste 0 -- -- 63
2020-03-24 18:00:00 13 7 Sudeste 22 Este 0 -- -- 55
2020-03-24 17:00:00 14.3 7 Nordeste 18 Norte 0 -- -- 54
2020-03-24 16:00:00 14.5 6 Norte 23 Norte 0 -- -- 51
2020-03-24 15:00:00 14.1 10 Nordeste 22 Norte 0 -- -- 58
2020-03-24 14:00:00 13.4 11 Nordeste 18 Norte 0 -- -- 59
2020-03-24 13:00:00 12.8 12 Nordeste 22 Nordeste 0 -- -- 64
2020-03-24 12:00:00 12.4 11 Norte 27 Nordeste 0 -- -- 70
2020-03-24 11:00:00 11.6 11 Nordeste 20 Nordeste 0 -- -- 71
2020-03-24 10:00:00 8.8 9 Nordeste 17 Nordeste 0 -- -- 78
2020-03-24 09:00:00 5.9 5 Este 15 Este 0 -- -- 89
2020-03-24 08:00:00 2.4 5 Sudeste 12 Este 0 -- -- 93
2020-03-24 07:00:00 5 8 Este 19 Este 0 -- -- 85
2020-03-24 06:00:00 5.1 11 Este 14 Este 0 -- -- 89
2020-03-24 05:00:00 4.6 10 Este 13 Nordeste 0 -- -- 95
2020-03-24 04:00:00 3.1 6 Este 8 Este 0 -- -- 96
2020-03-24 03:00:00 3 4 Este 9 Este 0 -- -- 89
2020-03-24 02:00:00 3.5 6 Nordeste 9 Este 0 -- -- 93
2020-03-24 01:00:00 4.1 3 Este 13 Sudeste 0 -- -- 88
2020-03-24 00:00:00 6.4 7 Este 22 Este 0 -- -- 83
2020-03-23 23:00:00 5.9 13 Este 19 Este 0 -- -- 85
2020-03-23 22:00:00 6.8 13 Este 22 Este 0 -- -- 80
2020-03-23 21:00:00 7.1 10 Este 21 Este 0 -- -- 81
2020-03-23 20:00:00 7.8 9 Este 23 Sudeste 0 -- -- 76
2020-03-23 19:00:00 10.2 14 Este 32 Norte 0 -- -- 69
2020-03-23 18:00:00 12 12 Este 22 Este 0 -- -- 63
2020-03-23 17:00:00 11.8 18 Nordeste 28 Nordeste 0 -- -- 61
2020-03-23 16:00:00 11.6 13 Nordeste 22 Nordeste 0 -- -- 67
2020-03-23 15:00:00 9 18 Nordeste 31 Nordeste 1 -- -- 83
2020-03-23 14:00:00 11.1 14 Nordeste 24 Norte 0 -- -- 68
2020-03-23 13:00:00 10.3 14 Norte 20 Norte 0 -- -- 73
2020-03-23 12:00:00 9.6 8 Norte 18 Norte 0 -- -- 79
2020-03-23 11:00:00 10 8 Norte 12 Nordeste 0 -- -- 81
2020-03-23 10:00:00 7.4 3 Noroeste 8 Noroeste 0 -- -- 92
2020-03-23 09:00:00 5.3 0 Calma 6 Este 0 -- -- 99
2020-03-23 08:00:00 -- -- -- -- -- -- -- -- --
2020-03-23 07:00:00 2.7 0 Calma 5 Nordeste 0 -- -- 98
2020-03-23 06:00:00 2.7 0 Calma 6 Norte 0 -- -- 97
2020-03-23 05:00:00 3.1 3 Nordeste 8 Este 0 -- -- 98
2020-03-23 04:00:00 2 4 Este 6 Este 0 -- -- 98
2020-03-23 03:00:00 1.9 0 Calma 4 Nordeste 0 -- -- 93
2020-03-23 02:00:00 3.8 2 Sudeste 5 Sudeste 0 -- -- 96
2020-03-23 01:00:00 4.2 3 Sudeste 15 Sudeste 0 -- -- 97
2020-03-23 00:00:00 4.8 0 Calma 4 Sur 0 -- -- 93
2020-03-22 23:00:00 5.6 2 Sudeste 5 Sudeste 0 -- -- 94
2020-03-22 22:00:00 6.2 4 Sudeste 8 Sur 0.2 -- -- 93
2020-03-22 21:00:00 7.3 2 Oeste 10 Norte 0 -- -- 93
2020-03-22 20:00:00 7.8 5 Norte 14 Noroeste 0.4 -- -- 90
2020-03-22 19:00:00 9.1 12 Norte 19 Noroeste 0.2 -- -- 82
2020-03-22 18:00:00 10.5 7 Este 13 Nordeste 0 -- -- 71
2020-03-22 17:00:00 10.9 7 Nordeste 20 Nordeste 0 -- -- 72
2020-03-22 16:00:00 11.6 4 Nordeste 12 Nordeste 0 -- -- 59
2020-03-22 15:00:00 11.2 5 Nordeste 16 Norte 0 -- -- 59
2020-03-22 14:00:00 10.5 10 Norte 18 Norte 0 -- -- 62
2020-03-22 13:00:00 9.8 8 Noroeste 15 Norte 0 -- -- 77
2020-03-22 12:00:00 8.4 4 Oeste 9 Noroeste 0 -- -- 83
2020-03-22 11:00:00 7.2 -- -- 9 Norte 0 -- -- 85
2020-03-22 10:00:00 7.1 3 Norte 6 Norte 0 -- -- 82
2020-03-22 09:00:00 6.3 3 Nordeste 6 Este 0 -- -- 82
2020-03-22 08:00:00 5.2 5 Este 8 Norte 0 -- -- 89
2020-03-22 07:00:00 4.9 5 Nordeste 8 Nordeste 0 -- -- 91
2020-03-22 06:00:00 4.7 5 Este 7 Este 0 -- -- 92
2020-03-22 05:00:00 4.7 0 Calma 8 Sudeste 0 -- -- 88
2020-03-22 04:00:00 5.2 5 Sudeste 14 Sudeste 0 -- -- 86
2020-03-22 03:00:00 5.6 3 Sudeste 13 Sudeste 0 -- -- 86
2020-03-22 02:00:00 5.8 9 Sudeste 17 Este 0 -- -- 85
2020-03-22 01:00:00 5.6 10 Este 15 Este 0 -- -- 86
2020-03-22 00:00:00 5.5 7 Sudeste 15 Sudeste 0 -- -- 85
2020-03-21 23:00:00 5.3 10 Sudeste 17 Sudeste 0 -- -- 85
2020-03-21 22:00:00 5.4 5 Este 15 Este 0 -- -- 82
2020-03-21 21:00:00 5.9 4 Sur 17 Este 0 -- -- 81
2020-03-21 20:00:00 7 6 Sudeste 13 Este 0 -- -- 74
2020-03-21 19:00:00 7.9 9 Sudeste 24 Este 0 -- -- 74
2020-03-21 18:00:00 8 15 Este 26 Este 0 -- -- 75
2020-03-21 17:00:00 8.2 10 Sudeste 19 Este 0 -- -- 79
2020-03-21 16:00:00 8.6 13 Este 20 Este 0 -- -- 72
2020-03-21 15:00:00 8.2 10 Sudeste 24 Sudeste 0 -- -- 82
2020-03-21 14:00:00 9.6 14 Sudeste 30 Sudeste 0 -- -- 77
2020-03-21 13:00:00 9.6 18 Sudeste 32 Este 0 -- -- 75
2020-03-21 12:00:00 9.1 21 Este 38 Este 0 -- -- 75
2020-03-21 11:00:00 8.4 26 Este 42 Este 0 -- -- 79
2020-03-21 10:00:00 7.9 28 Este 43 Sudeste 0 -- -- 83
2020-03-21 09:00:00 8.1 19 Este 32 Este 0 -- -- 81
2020-03-21 08:00:00 7.4 18 Este 43 Sudeste 0 -- -- 85
2020-03-21 07:00:00 7 21 Sudeste 42 Este 0 -- -- 86
2020-03-21 06:00:00 7.1 23 Este 40 Este 0 -- -- 84
2020-03-21 05:00:00 7 20 Este 39 Este 0 -- -- 84
2020-03-21 04:00:00 7.1 27 Este 48 Este 0 -- -- 84
2020-03-21 03:00:00 7.5 30 Este 47 Este 0 -- -- 82
2020-03-21 02:00:00 7.9 27 Este 44 Este 0 -- -- 83
2020-03-21 01:00:00 8.1 27 Este 47 Este 0 -- -- 83
2020-03-21 00:00:00 7.3 10 Este 24 Este 0 -- -- 84
2020-03-20 23:00:00 7.4 14 Este 24 Este 0 -- -- 83
2020-03-20 22:00:00 8 13 Este 28 Este 0 -- -- 80
2020-03-20 21:00:00 8.3 18 Este 32 Norte 0 -- -- 80
2020-03-20 20:00:00 9.1 17 Este 30 Norte 0 -- -- 77
2020-03-20 19:00:00 9.3 22 Este 35 Este 0 -- -- 79
2020-03-20 18:00:00 10.3 15 Este 32 Este 0 -- -- 77
2020-03-20 17:00:00 10.6 22 Sudeste 38 Sudeste 0 -- -- 76
2020-03-20 16:00:00 10.7 22 Este 45 Norte 0 -- -- 75
2020-03-20 15:00:00 10.9 30 Sudeste 48 Norte 0 -- -- 73
2020-03-20 14:00:00 10.6 28 Sudeste 46 Sudeste 0 -- -- 74
2020-03-20 13:00:00 10.4 27 Sudeste 46 Este 0 -- -- 75
2020-03-20 12:00:00 10.2 26 Sudeste 48 Sudeste 0 -- -- 76
2020-03-20 11:00:00 9.5 30 Sudeste 51 Sudeste 0 -- -- 79
2020-03-20 10:00:00 8.7 24 Sudeste 44 Sur 0 -- -- 81
2020-03-20 09:00:00 8 25 Sur 45 Sur 0 -- -- 85
2020-03-20 08:00:00 7.5 22 Sur 41 Sudoeste 0 -- -- 88
2020-03-20 07:00:00 7.6 26 Sudoeste 42 Sudoeste 0 -- -- 88
2020-03-20 06:00:00 7.9 26 Sudoeste 40 Sudoeste 0 -- -- 88
2020-03-20 05:00:00 8.1 23 Sudoeste 41 Sudoeste 0 -- -- 86
2020-03-20 04:00:00 8.2 22 Sudoeste 39 Sudoeste 0 -- -- 87
2020-03-20 03:00:00 8.5 22 Sudoeste 38 Sudoeste 0 -- -- 85
2020-03-20 02:00:00 8.6 13 Sudoeste 25 Sudoeste 0 -- -- 83
2020-03-20 01:00:00 8.8 5 Sudoeste 35 Sudoeste 0 -- -- 82
2020-03-20 00:00:00 9.3 21 Sudoeste 40 Sudoeste 0 -- -- 81
2020-03-19 23:00:00 9.9 24 Sudoeste 39 Sudoeste 0 -- -- 78
2020-03-19 22:00:00 9.6 19 Sudoeste 30 Sudoeste 0 -- -- 76
2020-03-19 21:00:00 9.5 14 Sudoeste 23 Sudoeste 0 -- -- 75
2020-03-19 20:00:00 10.1 15 Sudoeste 27 Sudoeste 0 -- -- 72
2020-03-19 19:00:00 11.1 12 Sudoeste 21 Oeste 0 -- -- 67
2020-03-19 18:00:00 12.4 12 Oeste 28 Oeste 0 -- -- 64
2020-03-19 17:00:00 12.7 12 Oeste 26 Oeste 0 -- -- 66
2020-03-19 16:00:00 11.8 16 Oeste 26 Oeste 0 -- -- 67
2020-03-19 15:00:00 11.3 15 Oeste 26 Sudoeste 0 -- -- 68
2020-03-19 14:00:00 11.4 17 Sudoeste 28 Oeste 0 -- -- 63
2020-03-19 13:00:00 11.8 14 Sudoeste 29 Sudoeste 0 -- -- 61
2020-03-19 12:00:00 11.8 18 Sudoeste 34 Sudoeste 0 -- -- 58
2020-03-19 11:00:00 11.6 20 Oeste 39 Sudoeste 0 -- -- 59
2020-03-19 10:00:00 10.3 16 Sudoeste 34 Sudoeste 0 -- -- 58
2020-03-19 09:00:00 9 20 Sudoeste 33 Sudoeste 0 -- -- 62
2020-03-19 08:00:00 8 -- -- 38 Sudoeste 0 -- -- 70
2020-03-19 07:00:00 8.6 24 Sudoeste 41 Oeste 0 -- -- 68
2020-03-19 06:00:00 8.9 22 Oeste 35 Oeste 0 -- -- 76
2020-03-19 05:00:00 9.3 18 Oeste 32 Oeste 0 -- -- 80
2020-03-19 04:00:00 9.5 15 Oeste 23 Sudoeste 0 -- -- 81
2020-03-19 03:00:00 9.8 14 Sudoeste 22 Oeste 0 -- -- 81
2020-03-19 02:00:00 9.9 11 Oeste 21 Oeste 0 -- -- 78
2020-03-19 01:00:00 10.4 14 Oeste 23 Oeste 0 -- -- 75
2020-03-19 00:00:00 9.6 11 Oeste 17 Oeste 0 -- -- 77
2020-03-18 23:00:00 9.4 8 Oeste 14 Oeste 0 -- -- 78
2020-03-18 22:00:00 10.9 12 Oeste 21 Oeste 0 -- -- 73
2020-03-18 21:00:00 11.4 13 Oeste 20 Oeste 0 -- -- 72
2020-03-18 20:00:00 11.8 10 Oeste 17 Sudoeste 0 -- -- 71
2020-03-18 19:00:00 13.5 10 Oeste 20 Oeste 0 -- -- 64
2020-03-18 18:00:00 14.9 11 Oeste 22 Sudoeste 0 -- -- 61
2020-03-18 17:00:00 16.3 14 Sudoeste 25 Sudoeste 0 -- -- 57
2020-03-18 16:00:00 16.5 16 Sur 24 Sur 0 -- -- 58
2020-03-18 15:00:00 16.9 15 Sudoeste 28 Oeste 0 -- -- 56
2020-03-18 14:00:00 16.2 18 Sudoeste 32 Sudoeste 0 -- -- 59
2020-03-18 13:00:00 14.2 15 Sudoeste 26 Sudoeste 0 -- -- 62
2020-03-18 12:00:00 14.4 9 Oeste 21 Sudoeste 0 -- -- 68
2020-03-18 11:00:00 12.1 9 Oeste 16 Oeste 0 -- -- 75
2020-03-18 10:00:00 9.8 4 Noroeste 15 Oeste 0 -- -- 84
2020-03-18 09:00:00 7.9 10 Oeste 15 Oeste 0 -- -- 86
2020-03-18 08:00:00 6 2 Oeste 14 Oeste 0 -- -- 86
2020-03-18 07:00:00 6.4 10 Oeste 15 Oeste 0 -- -- 85
2020-03-18 06:00:00 4.9 7 Sudoeste 10 Sudoeste 0 -- -- 94
2020-03-18 05:00:00 5.5 8 Sudoeste 12 Sudoeste 0 -- -- 92
2020-03-18 04:00:00 6.4 6 Sudoeste 16 Oeste 0 -- -- 87
2020-03-18 03:00:00 7.3 9 Oeste 12 Sudoeste 0 -- -- 89
2020-03-18 02:00:00 6.1 5 Oeste 17 Norte 0 -- -- 92
2020-03-18 01:00:00 8.2 10 Sudoeste 20 Sudoeste 0 -- -- 87
2020-03-18 00:00:00 9 13 Sudoeste 19 Sur 0 -- -- 82
2020-03-17 23:00:00 8.2 9 Sudoeste 14 Sur 0 -- -- 87
2020-03-17 22:00:00 8.3 8 Oeste 15 Oeste 0 -- -- 85
2020-03-17 21:00:00 7.6 8 Sur 13 Sudoeste 0 -- -- 85
2020-03-17 20:00:00 9.7 7 Sur 30 Norte 0 -- -- 78
2020-03-17 19:00:00 11.7 16 Sudoeste 27 Sudoeste 0 -- -- 74
2020-03-17 18:00:00 12.8 13 Sudoeste 36 Sudoeste 0 -- -- 71
2020-03-17 17:00:00 12.5 23 Sudoeste 42 Sur 0 -- -- 69
2020-03-17 16:00:00 13 30 Sur 39 Sur 0 -- -- 71
2020-03-17 15:00:00 11.1 22 Sudoeste 30 Norte 0 -- -- 76
2020-03-17 14:00:00 10.4 16 Sudoeste 31 Sur 0 -- -- 79
2020-03-17 13:00:00 8 -- -- 24 Norte 0 -- -- 88
2020-03-17 12:00:00 6.7 -- -- 13 Norte 0 -- -- 90
2020-03-17 11:00:00 5.5 -- -- 17 Norte 0 -- -- 92
2020-03-17 10:00:00 4 -- -- 16 Norte 0 -- -- 100
2020-03-17 09:00:00 2.8 4 Oeste 8 Oeste 0 -- -- 100
2020-03-17 08:00:00 2.1 4 Nordeste 14 Este 0 -- -- 100
2020-03-17 07:00:00 1.9 2 Sudoeste 4 Sudoeste 0 -- -- 100
2020-03-17 06:00:00 1.3 0 Calma 2 Sudeste 0 -- -- 100
2020-03-17 05:00:00 1.2 0 Calma 5 Noroeste 0 -- -- 100
2020-03-17 04:00:00 1 2 Noroeste 8 Noroeste 0 -- -- 100
2020-03-17 03:00:00 1.1 3 Noroeste 7 Noroeste 0 -- -- 99
2020-03-17 02:00:00 1.5 0 Calma 6 Oeste 0.4 -- -- 99
2020-03-17 01:00:00 1.6 5 Sur 9 Sudeste 0.6 -- -- 100
2020-03-17 00:00:00 1.5 6 Sur 11 Sur 0.4 -- -- 100
2020-03-16 23:00:00 1.2 3 Sudoeste 10 Sudoeste 1.4 -- -- 100
2020-03-16 22:00:00 1.5 10 Sudoeste 18 Sudoeste 0.8 -- -- 100
2020-03-16 21:00:00 1.6 6 Sudoeste 21 Norte 1 -- -- 100
2020-03-16 20:00:00 1.9 17 Sur 37 Sudeste 2 -- -- 99
2020-03-16 19:00:00 2.4 22 Sudeste 35 Sudeste 1.6 -- -- 100
2020-03-16 18:00:00 1.9 23 Sudeste 49 Norte 0.6 -- -- 99
2020-03-16 17:00:00 2.5 28 Sudeste 41 Sudeste 0.2 -- -- 99
2020-03-16 16:00:00 2.4 26 Sudeste 37 Sudeste 3.2 -- -- 100
2020-03-16 15:00:00 0.5 0 Calma -- -- 2.4 -- -- 100
2020-03-16 14:00:00 0.2 0 Calma -- -- 1.6 -- -- 100
2020-03-16 13:00:00 0.2 0 Calma 17 Este 1.2 -- -- 100
2020-03-16 12:00:00 0 14 Este 27 Este 0.6 -- -- 100
2020-03-16 11:00:00 0 18 Este 29 Este 0.8 -- -- 100
2020-03-16 10:00:00 0 19 Este 33 Norte 0.2 -- -- 100
2020-03-16 09:00:00 0 18 Este 30 Nordeste 0 -- -- 99
2020-03-16 08:00:00 -0.1 19 Nordeste 33 Nordeste 0 -- -- 99
2020-03-16 07:00:00 -0.1 16 Nordeste 30 Nordeste 0 -- -- 99
2020-03-16 06:00:00 0.2 20 Nordeste 33 Nordeste 0.2 -- -- 98
2020-03-16 05:00:00 0.3 18 Nordeste 28 Norte 0 -- -- 98
2020-03-16 04:00:00 0.7 15 Nordeste 26 Nordeste 0.2 -- -- 98
2020-03-16 03:00:00 0.9 19 Norte 27 Nordeste 0 -- -- 96
2020-03-16 02:00:00 1.3 18 Nordeste 27 Nordeste 0 -- -- 96
2020-03-16 01:00:00 1.8 18 Nordeste 28 Nordeste 0 -- -- 96
2020-03-16 00:00:00 3.6 24 Norte 41 Norte 0 -- -- 87
2020-03-15 23:00:00 5.1 28 Norte 47 Nordeste 0 -- -- 78
2020-03-15 22:00:00 8.5 9 Norte 19 Norte 0 -- -- 73
2020-03-15 21:00:00 9.4 11 Nordeste 26 Nordeste 0 -- -- 68
2020-03-15 20:00:00 10.2 -- -- 41 Norte 0 -- -- 73
2020-03-15 19:00:00 12 -- -- 39 Norte 0 -- -- 71
2020-03-15 18:00:00 14.7 23 Nordeste 51 Norte 0 -- -- 60
2020-03-15 17:00:00 15.8 35 Norte 59 Norte 0 -- -- 59
2020-03-15 16:00:00 19.2 39 Norte 58 Norte 0 -- -- 37
2020-03-15 15:00:00 18.8 -- -- 40 Norte 0 -- -- 38
2020-03-15 14:00:00 19.1 19 Norte 32 Norte 0 -- -- 39
2020-03-15 13:00:00 18.4 -- -- 17 Norte 0 -- -- 43
2020-03-15 12:00:00 16.5 3 Norte 16 Norte 0 -- -- 49
2020-03-15 11:00:00 14.7 -- -- 15 Norte 0 -- -- 53
2020-03-15 10:00:00 14.8 5 Nordeste 19 Noroeste 0 -- -- 59
2020-03-15 09:00:00 10.1 9 Oeste 15 Oeste 0 -- -- 69
2020-03-15 08:00:00 2.6 3 Sudoeste 8 Sudoeste 0 -- -- 79
2020-03-15 07:00:00 4.1 6 Oeste 13 Sudoeste 0 -- -- 76
2020-03-15 06:00:00 2.7 2 Oeste 11 Noroeste 0 -- -- 78
2020-03-15 05:00:00 2 0 Calma 9 Noroeste 0 -- -- 75
2020-03-15 04:00:00 3.1 4 Noroeste 10 Noroeste 0 -- -- 71
2020-03-15 03:00:00 2.6 4 Oeste 6 Noroeste 0 -- -- 70
2020-03-15 02:00:00 3.7 5 Oeste 9 Noroeste 0 -- -- 65
2020-03-15 01:00:00 3.8 6 Noroeste 11 Noroeste 0 -- -- 66
2020-03-15 00:00:00 3.9 8 Noroeste 12 Noroeste 0 -- -- 68
2020-03-14 23:00:00 4.3 8 Noroeste 11 Noroeste 0 -- -- 67
2020-03-14 22:00:00 5.2 7 Noroeste 10 Norte 0 -- -- 66
2020-03-14 21:00:00 7 -- -- 9 Norte 0 -- -- 63
2020-03-14 20:00:00 10.9 4 Norte 10 Este 0 -- -- 51
2020-03-14 19:00:00 15.2 5 Sudeste 14 Este 0 -- -- 40
2020-03-14 18:00:00 16.9 10 Sudeste 19 Este 0 -- -- 36
2020-03-14 17:00:00 17.8 12 Este 20 Sudeste 0 -- -- 35
2020-03-14 16:00:00 17.9 6 Sudeste 14 Este 0 -- -- 35
2020-03-14 15:00:00 16.8 5 Sur 14 Sudeste 0 -- -- 37
2020-03-14 14:00:00 15.8 -- -- 18 Sudeste 0 -- -- 48
2020-03-14 13:00:00 13.8 6 Sudeste 10 Nordeste 0 -- -- 51
2020-03-14 12:00:00 11.5 6 Este 13 Este 0 -- -- 58
2020-03-14 11:00:00 9.7 5 Este 9 Este 0 -- -- 79
2020-03-14 10:00:00 6 0 Calma 4 Sudeste 0 -- -- 100
2020-03-14 09:00:00 1.7 0 Calma 6 Noroeste 0 -- -- 100
2020-03-14 08:00:00 -1.5 3 Norte 5 Noroeste 0 -- -- 95
2020-03-14 07:00:00 -0.4 0 Calma 19 Sudeste 0 -- -- 95
2020-03-14 06:00:00 0.7 2 Noroeste 12 Noroeste 0 -- -- 94
2020-03-14 05:00:00 1.2 3 Noroeste 8 Oeste 0 -- -- 93
2020-03-14 04:00:00 1.4 2 Noroeste 8 Noroeste 0 -- -- 94
2020-03-14 03:00:00 2.5 3 Noroeste 8 Noroeste 0 -- -- 95
2020-03-14 02:00:00 2.7 0 Calma 9 Noroeste 0 -- -- 91
2020-03-14 01:00:00 4.1 5 Noroeste 9 Noroeste 0 -- -- 92
2020-03-14 00:00:00 4.4 3 Norte 8 Norte 0 -- -- 93
2020-03-13 23:00:00 5 5 Noroeste 7 Noroeste 0 -- -- 87
2020-03-13 22:00:00 6.7 0 Calma 3 Nordeste 0 -- -- 84
2020-03-13 21:00:00 9.7 2 Sudeste 9 Este 0 -- -- 79
2020-03-13 20:00:00 11.7 9 Este 18 Este 0 -- -- 75
2020-03-13 19:00:00 13.9 9 Este 18 Norte 0 -- -- 70
2020-03-13 18:00:00 15 5 Noroeste 10 Noroeste 0 -- -- 68
2020-03-13 17:00:00 15.8 5 Norte 18 Nordeste 0 -- -- 64
2020-03-13 16:00:00 14.7 7 Este 15 Este 0 -- -- 69
2020-03-13 15:00:00 13 7 Sudeste 18 Este 0 -- -- 74
2020-03-13 14:00:00 12.6 6 Este 13 Este 0 -- -- 75
2020-03-13 13:00:00 10.3 -- -- 10 Norte 0 -- -- 83
2020-03-13 12:00:00 9.2 4 Sudeste 10 Sudeste 0 -- -- 85
2020-03-13 11:00:00 7.9 3 Nordeste 7 Este 0 -- -- 90
2020-03-13 10:00:00 7.2 4 Sudeste 8 Sudeste 0 -- -- 93
2020-03-13 09:00:00 6.5 0 Calma 5 Este 0 -- -- 96
2020-03-13 08:00:00 6.2 2 Este 5 Este 0 -- -- 97
2020-03-13 07:00:00 5.4 0 Calma 5 Norte 0 -- -- 98
2020-03-13 06:00:00 3.9 2 Norte 7 Noroeste 0 -- -- 94
2020-03-13 05:00:00 5.1 3 Noroeste 8 Noroeste 0 -- -- 94
2020-03-13 04:00:00 6 4 Noroeste 8 Nordeste 0 -- -- 92
2020-03-13 03:00:00 6.8 4 Este 9 Este 0 -- -- 92
2020-03-13 02:00:00 8.2 0 Calma 6 Sudeste 0 -- -- 84
2020-03-13 01:00:00 9.8 4 Sudeste 16 Sur 0 -- -- 85
2020-03-13 00:00:00 10 6 Este 15 Este 0 -- -- 81
2020-03-12 23:00:00 10.7 4 Noroeste 10 Noroeste 0 -- -- 77
2020-03-12 22:00:00 11.3 8 Noroeste 12 Noroeste 0 -- -- 76
2020-03-12 21:00:00 13.8 8 Noroeste 10 Noroeste 0 -- -- 69
2020-03-12 20:00:00 15.5 4 Nordeste 13 Este 0 -- -- 63
2020-03-12 19:00:00 17.6 10 Este 23 Este 0 -- -- 57
2020-03-12 18:00:00 20.2 12 Este 23 Nordeste 0 -- -- 52
2020-03-12 17:00:00 22.4 12 Este 23 Este 0 -- -- 39
2020-03-12 16:00:00 23.1 16 Este 27 Sudoeste 0 -- -- 37
2020-03-12 15:00:00 24.3 15 Oeste 26 Oeste 0 -- -- 32
2020-03-12 14:00:00 24.3 12 Noroeste 28 Oeste 0 -- -- 30
2020-03-12 13:00:00 22.8 6 Nordeste 18 Nordeste 0 -- -- 31
2020-03-12 12:00:00 21.9 10 Nordeste 15 Nordeste 0 -- -- 34
2020-03-12 11:00:00 20 13 Oeste 25 Oeste 0 -- -- 50
2020-03-12 10:00:00 16.6 11 Oeste 17 Oeste 0 -- -- 58
2020-03-12 09:00:00 15.3 8 Sudoeste 24 Oeste 0 -- -- 62
2020-03-12 08:00:00 13.6 6 Oeste 12 Oeste 0 -- -- 60
2020-03-12 07:00:00 12.9 8 Oeste 19 Oeste 0 -- -- 56
2020-03-12 06:00:00 14 11 Oeste 28 Oeste 0 -- -- 58
2020-03-12 05:00:00 12 4 Noroeste 19 Oeste 0 -- -- 61
2020-03-12 04:00:00 10.3 6 Oeste 16 Oeste 0 -- -- 63
2020-03-12 03:00:00 10.6 10 Oeste 19 Sudoeste 0 -- -- 70
2020-03-12 02:00:00 9.2 3 Oeste 12 Oeste 0 -- -- 73
2020-03-12 01:00:00 10 2 Oeste 10 Noroeste 0 -- -- 74
2020-03-12 00:00:00 10.1 5 Noroeste 9 Noroeste 0 -- -- 75
2020-03-11 23:00:00 10.3 5 Noroeste 11 Noroeste 0 -- -- 74
2020-03-11 22:00:00 12.1 6 Noroeste 11 Noroeste 0 -- -- 69
2020-03-11 21:00:00 14.2 5 Noroeste 11 Noroeste 0 -- -- 62
2020-03-11 20:00:00 16.7 3 Este 10 Nordeste 0 -- -- 57
2020-03-11 19:00:00 19.1 10 Nordeste 12 Nordeste 0 -- -- 53
2020-03-11 18:00:00 22.1 3 Este 12 Nordeste 0 -- -- 42
2020-03-11 17:00:00 23.2 8 Nordeste 19 Norte 0 -- -- 38
2020-03-11 16:00:00 23.8 9 Nordeste 19 Nordeste 0 -- -- 34
2020-03-11 15:00:00 23.4 9 Nordeste 18 Nordeste 0 -- -- 35
2020-03-11 14:00:00 23 8 Nordeste 18 Norte 0 -- -- 38
2020-03-11 13:00:00 21.9 8 Nordeste 16 Nordeste 0 -- -- 40
2020-03-11 12:00:00 20.3 5 Nordeste 10 Nordeste 0 -- -- 45
2020-03-11 11:00:00 18.9 3 Este 6 Nordeste 0 -- -- 48
2020-03-11 10:00:00 15.6 4 Sudoeste 6 Sudoeste 0 -- -- 63
2020-03-11 09:00:00 10.2 3 Noroeste 10 Oeste 0 -- -- 81
2020-03-11 08:00:00 5.4 5 Noroeste 8 Noroeste 0 -- -- 88
2020-03-11 07:00:00 5.3 5 Oeste 8 Noroeste 0 -- -- 88
2020-03-11 06:00:00 5.7 2 Oeste 9 Noroeste 0 -- -- 90
2020-03-11 05:00:00 5.7 5 Noroeste 9 Noroeste 0 -- -- 90
2020-03-11 04:00:00 6.8 3 Noroeste 8 Oeste 0 -- -- 87
2020-03-11 03:00:00 7.1 4 Noroeste 8 Noroeste 0 -- -- 88
2020-03-11 02:00:00 6.8 4 Noroeste 8 Noroeste 0 -- -- 84
2020-03-11 01:00:00 7.6 5 Noroeste 15 Noroeste 0 -- -- 83
2020-03-11 00:00:00 7.4 8 Noroeste 13 Noroeste 0 -- -- 83
2020-03-10 23:00:00 8.4 8 Noroeste 14 Noroeste 0 -- -- 80
2020-03-10 22:00:00 9.8 9 Noroeste 14 Noroeste 0 -- -- 76
2020-03-10 21:00:00 10.8 10 Noroeste 14 Norte 0 -- -- 71
2020-03-10 20:00:00 14.8 7 Norte 10 Norte 0 -- -- 58
2020-03-10 19:00:00 19.3 5 Nordeste 19 Norte 0 -- -- 52
2020-03-10 18:00:00 20.9 12 Nordeste 30 Norte 0 -- -- 43
2020-03-10 17:00:00 21.4 -- -- 28 Norte 0 -- -- 40
2020-03-10 16:00:00 21.6 19 Nordeste 27 Nordeste 0 -- -- 37
2020-03-10 15:00:00 20.5 7 Nordeste 21 Nordeste 0 -- -- 42
2020-03-10 14:00:00 19.2 8 Norte 18 Norte 0 -- -- 45
2020-03-10 13:00:00 17.9 13 Nordeste 20 Nordeste 0 -- -- 47
2020-03-10 12:00:00 16.4 4 Oeste 13 Sudoeste 0 -- -- 44
2020-03-10 11:00:00 14.2 -- -- 16 Norte 0 -- -- 50
2020-03-10 10:00:00 10.2 10 Sudoeste 18 Oeste 0 -- -- 65
2020-03-10 09:00:00 6.2 11 Sudoeste 18 Oeste 0 -- -- 76
2020-03-10 08:00:00 5.2 12 Oeste 15 Sudoeste 0 -- -- 74
2020-03-10 07:00:00 2.2 4 Noroeste 9 Noroeste 0 -- -- 86
2020-03-10 06:00:00 2.1 5 Noroeste 8 Noroeste 0 -- -- 86
2020-03-10 05:00:00 2 3 Oeste 7 Sudoeste 0 -- -- 84
2020-03-10 04:00:00 3.1 3 Oeste 9 Sudoeste 0 -- -- 79
2020-03-10 03:00:00 2.2 4 Sudoeste 8 Sudoeste 0 -- -- 84
2020-03-10 02:00:00 2.3 0 Calma 13 Noroeste 0 -- -- 82
2020-03-10 01:00:00 3.3 9 Noroeste 14 Noroeste 0 -- -- 77
2020-03-10 00:00:00 4.2 9 Noroeste 15 Noroeste 0 -- -- 73
2020-03-09 23:00:00 4.1 8 Noroeste 13 Noroeste 0 -- -- 74
2020-03-09 22:00:00 3.7 6 Noroeste 12 Noroeste 0 -- -- 75
2020-03-09 21:00:00 5.1 4 Noroeste 5 Noroeste 0 -- -- 69
2020-03-09 20:00:00 7.7 5 Nordeste 14 Este 0 -- -- 61
2020-03-09 19:00:00 10.2 10 Este 18 Este 0 -- -- 52
2020-03-09 18:00:00 12.1 16 Nordeste 24 Nordeste 0 -- -- 43
2020-03-09 17:00:00 13.2 15 Este 29 Nordeste 0 -- -- 44
2020-03-09 16:00:00 12.6 15 Nordeste 28 Nordeste 0 -- -- 45
2020-03-09 15:00:00 12 18 Nordeste 29 Nordeste 0 -- -- 53
2020-03-09 14:00:00 11 15 Nordeste 28 Nordeste 0 -- -- 58
2020-03-09 13:00:00 9.8 12 Nordeste 24 Nordeste 0 -- -- 64
2020-03-09 12:00:00 8.5 13 Nordeste 22 Norte 0 -- -- 70
2020-03-09 11:00:00 7.5 14 Nordeste 26 Nordeste 0 -- -- 76
2020-03-09 10:00:00 6.1 21 Norte 27 Norte 0 -- -- 83
2020-03-09 09:00:00 3.7 12 Norte 17 Norte 0 -- -- 97
2020-03-09 08:00:00 0.9 9 Norte 12 Norte 0 -- -- 96
2020-03-09 07:00:00 1.8 6 Norte 17 Norte 0 -- -- 94
2020-03-09 06:00:00 2.6 13 Norte 21 Norte 0 -- -- 94
2020-03-09 05:00:00 3.8 15 Norte 23 Norte 0 -- -- 93
2020-03-09 04:00:00 4.8 -- -- 24 Norte 0 -- -- 94
2020-03-09 03:00:00 5.3 18 Nordeste 26 Norte 0 -- -- 92
2020-03-09 02:00:00 6.7 23 Nordeste 37 Nordeste 0 -- -- 90
2020-03-09 01:00:00 7.1 21 Nordeste 29 Nordeste 0 -- -- 92
2020-03-09 00:00:00 6.2 17 Norte 24 Norte 0 -- -- 93
2020-03-08 23:00:00 6.5 18 Norte 26 Norte 0 -- -- 91
2020-03-08 22:00:00 6.8 9 Norte 21 Norte 0 -- -- 89
2020-03-08 21:00:00 7.4 14 Norte 24 Norte 0 -- -- 87
2020-03-08 20:00:00 8.7 19 Norte 36 Norte 0 -- -- 82
2020-03-08 19:00:00 10.5 24 Norte 37 Nordeste 0 -- -- 72
2020-03-08 18:00:00 12.2 27 Norte 36 Nordeste 0 -- -- 63
2020-03-08 17:00:00 12 24 Norte 38 Norte 0 -- -- 63
2020-03-08 16:00:00 12.7 25 Norte 45 Nordeste 0 -- -- 58
2020-03-08 15:00:00 13.2 25 Norte 34 Nordeste 0 -- -- 55
2020-03-08 14:00:00 11.2 15 Nordeste 35 Norte 0 -- -- 61
2020-03-08 13:00:00 12.7 21 Nordeste 37 Nordeste 0 -- -- 44
2020-03-08 12:00:00 10.8 3 Norte 10 Nordeste 0 -- -- 66
2020-03-08 11:00:00 9.1 3 Sudeste 10 Este 0 -- -- 78
2020-03-08 10:00:00 6.5 7 Nordeste 10 Norte 0 -- -- 88
2020-03-08 09:00:00 2.3 7 Noroeste 11 Noroeste 0 -- -- 91
2020-03-08 08:00:00 -1.8 8 Noroeste 11 Noroeste 0 -- -- 91
2020-03-08 07:00:00 -0.9 6 Noroeste 13 Noroeste 0 -- -- 92
2020-03-08 06:00:00 -0.9 3 Noroeste 10 Noroeste 0 -- -- 93
2020-03-08 05:00:00 -0.7 4 Oeste 9 Oeste 0 -- -- 93
2020-03-08 04:00:00 -0.2 3 Noroeste 8 Oeste 0 -- -- 92
2020-03-08 03:00:00 0 2 Noroeste 7 Oeste 0 -- -- 92
2020-03-08 02:00:00 0.3 5 Noroeste 10 Noroeste 0 -- -- 92
2020-03-08 01:00:00 0.5 5 Noroeste 10 Noroeste 0 -- -- 92
2020-03-08 00:00:00 0.8 6 Noroeste 10 Noroeste 0 -- -- 91
2020-03-07 23:00:00 1.5 5 Noroeste 10 Noroeste 0 -- -- 89
2020-03-07 22:00:00 2.3 6 Noroeste 12 Noroeste 0 -- -- 87
2020-03-07 21:00:00 1.9 5 Noroeste 8 Noroeste 0 -- -- 83
2020-03-07 20:00:00 6.4 0 Calma 8 Sudeste 0 -- -- 72
2020-03-07 19:00:00 8.9 6 Sudeste 11 Este 0 -- -- 68
2020-03-07 18:00:00 11.4 6 Este 14 Este 0 -- -- 59
2020-03-07 17:00:00 11.9 5 Este 17 Nordeste 0 -- -- 56
2020-03-07 16:00:00 11.6 7 Sudeste 16 Este 0 -- -- 58
2020-03-07 15:00:00 10.6 9 Este 21 Este 0 -- -- 59
2020-03-07 14:00:00 10.3 8 Este 15 Nordeste 0 -- -- 61
2020-03-07 13:00:00 10.4 4 Este 10 Este 0 -- -- 60
2020-03-07 12:00:00 8.5 6 Norte 15 Nordeste 0 -- -- 68
2020-03-07 11:00:00 7.4 8 Nordeste 24 Nordeste 0 -- -- 72
2020-03-07 10:00:00 6 18 Nordeste 27 Nordeste 0 -- -- 78
2020-03-07 09:00:00 3.4 14 Norte 22 Norte 0 -- -- 85
2020-03-07 08:00:00 0.8 12 Norte 21 Norte 0 -- -- 90
2020-03-07 07:00:00 0.6 15 Norte 21 Norte 0 -- -- 89
2020-03-07 06:00:00 -0.6 8 Noroeste 16 Norte 0 -- -- 89
2020-03-07 05:00:00 0.4 12 Norte 23 Norte 0 -- -- 87
2020-03-07 04:00:00 0.2 17 Norte 24 Norte 0 -- -- 86
2020-03-07 03:00:00 -0.5 13 Norte 17 Norte 0 -- -- 89
2020-03-07 02:00:00 0 10 Nordeste 23 Nordeste 0 -- -- 88
2020-03-07 01:00:00 0.4 15 Nordeste 23 Nordeste 0 -- -- 86
2020-03-07 00:00:00 0.6 11 Nordeste 19 Nordeste 0 -- -- 85
2020-03-06 23:00:00 0.4 9 Nordeste 18 Nordeste 0 -- -- 83
2020-03-06 22:00:00 1.4 13 Nordeste 17 Nordeste 0 -- -- 83
2020-03-06 21:00:00 2.5 12 Nordeste 26 Nordeste 0 -- -- 71
2020-03-06 20:00:00 5.2 18 Nordeste 32 Nordeste 0 -- -- 55
2020-03-06 19:00:00 7 28 Nordeste 45 Nordeste 0 -- -- 62
2020-03-06 18:00:00 7.7 32 Nordeste 49 Nordeste 0 -- -- 59
2020-03-06 17:00:00 8.4 31 Nordeste 53 Este 0 -- -- 50
2020-03-06 16:00:00 9.5 34 Este 63 Nordeste 0 -- -- 40
2020-03-06 15:00:00 8.1 32 Nordeste 57 Nordeste 0 -- -- 58
2020-03-06 14:00:00 7.7 34 Este 59 Nordeste 0 -- -- 56
2020-03-06 13:00:00 6.5 43 Nordeste 64 Nordeste 0 -- -- 77
2020-03-06 12:00:00 6.9 47 Nordeste 67 Nordeste 0 -- -- 67
2020-03-06 11:00:00 5 46 Nordeste 66 Nordeste 0 -- -- 76
2020-03-06 10:00:00 5 37 Nordeste 57 Nordeste 0 -- -- 78
2020-03-06 09:00:00 3.7 39 Nordeste 54 Nordeste 0 -- -- 84
2020-03-06 08:00:00 3 31 Nordeste 57 Nordeste 0 -- -- 89
2020-03-06 07:00:00 3.5 29 Nordeste 41 Nordeste 0 -- -- 89
2020-03-06 06:00:00 4.2 31 Nordeste 53 Nordeste 0 -- -- 86
2020-03-06 05:00:00 4.8 39 Nordeste 54 Nordeste 0 -- -- 87
2020-03-06 04:00:00 4.5 35 Nordeste 54 Norte 0 -- -- 88
2020-03-06 03:00:00 4.2 31 Norte 46 Norte 0 -- -- 86
2020-03-06 02:00:00 3.7 27 Norte 43 Norte 0 -- -- 88
2020-03-06 01:00:00 3.7 31 Norte 44 Norte 0 -- -- 88
2020-03-06 00:00:00 4.1 20 Norte 32 Norte 0 -- -- 90
2020-03-05 23:00:00 5.1 21 Nordeste 37 Nordeste 0 -- -- 89
2020-03-05 22:00:00 5.3 24 Nordeste 45 Nordeste 0 -- -- 85
2020-03-05 21:00:00 6.2 32 Nordeste 43 Nordeste 0 -- -- 89
2020-03-05 20:00:00 6.8 36 Nordeste 51 Norte 0 -- -- 77
2020-03-05 19:00:00 7.3 27 Nordeste 52 Nordeste 0 -- -- 81
2020-03-05 18:00:00 8.9 39 Nordeste 62 Nordeste 0 -- -- 75
2020-03-05 17:00:00 10.6 35 Nordeste 55 Nordeste 0 -- -- 64
2020-03-05 16:00:00 10.5 43 Nordeste 59 Nordeste 0 -- -- 63
2020-03-05 15:00:00 10.9 47 Nordeste 67 Nordeste 0 -- -- 62
2020-03-05 14:00:00 10.2 42 Nordeste 63 Nordeste 0 -- -- 67
2020-03-05 13:00:00 10.1 40 Nordeste 62 Nordeste 0 -- -- 66
2020-03-05 12:00:00 8.8 45 Nordeste 60 Norte 0 -- -- 77
2020-03-05 11:00:00 7.9 40 Norte 61 Nordeste 0.2 -- -- 90
2020-03-05 10:00:00 9.2 50 Nordeste 69 Nordeste 0 -- -- 89
2020-03-05 09:00:00 10.5 28 Norte 50 Norte 0 -- -- 77
2020-03-05 08:00:00 9.6 22 Norte 39 Norte 0 -- -- 80
2020-03-05 07:00:00 7.6 6 Noroeste 18 Noroeste 0 -- -- 86
2020-03-05 06:00:00 9.1 5 Noroeste 29 Noroeste 0 -- -- 83
2020-03-05 05:00:00 10.3 18 Norte 35 Noroeste 0 -- -- 80
2020-03-05 04:00:00 10.5 16 Noroeste 26 Noroeste 0 -- -- 75
2020-03-05 03:00:00 10.1 11 Noroeste 17 Noroeste 0 -- -- 78
2020-03-05 02:00:00 10.1 6 Norte 14 Noroeste 0 -- -- 81
2020-03-05 01:00:00 9.9 5 Noroeste 11 Nordeste 0 -- -- 83
2020-03-05 00:00:00 9.6 6 Norte 11 Nordeste 0 -- -- 84